Skip Navigation Links
NOAA logo - Click to go to the NOAA homepage
NOAA's National Weather Service
Alaska Aviation Weather Unit
  NWS logo - Click to go to the NWS homepage
Left Navbar Graphic     23 AKDT = 07 GMT

   
NOAA is celebrating 200 years of science, service, and stewardship. Visit the NOAA 200th celebration Web site to learn more.
USA.gov is the U.S. Government's official Web portal to all Federal, state and local government Web resources and services.
Facebook
NWS on Facebook

Important Change Regarding the AAWU Web Presence

 

Over the last several months, the AAWU has been working to navigate its webpages to a nationally supported server. Security, as well as other needs, have necessitated the change.  In the process, we have made an effort to enhance the functionality of our website, as well as some of our products. As of June 20, 2017, aawu.arh.noaa.gov will be discontinued. The new AAWU web address is weather.gov/aawu. It is now live and will run in-parallel with the old site until it is discontinued. Please send any feedback or questions regarding the new webpages to nws.ar.aawu.webauthors@noaa.gov.  Thank you for your patience during this time of transition.
AAWU Home :: Display TAF Add Bookmark
METAR PAII 240156Z AUTO 13015KT 10SM -RA BKN015 OVC026 07/07 A2995 RMK
     AO2 SLP145 P0003 T00720067=

SPECI PAII 240334Z AUTO 14013KT 7SM -RA SCT009 BKN017 OVC035 07/07 A2991
     RMK AO2 CIG 015V025 P0004=

SPECI PAII 240352Z AUTO 14013KT 8SM -RA FEW009 BKN039 OVC048 08/07 A2991
     RMK AO2 P0006=

METAR PAII 240356Z AUTO 13014KT 8SM -RA FEW009 BKN019 OVC048 08/07 A2991
     RMK AO2 SLP130 P0006 T00780072=

SPECI PAII 240535Z AUTO 14011KT 7SM -RA SCT004 BKN013 OVC050 07/07 A2988
     RMK AO2 CIG 009V021 P0004=

PAII 240556Z AUTO 14012KT 9SM -RA SCT002 BKN011 OVC026 07/06 A2988
     RMK AO2 SLP123 P0005 60029 T00670061 10094 20067 56007=

SPECI PAII 240616Z AUTO 13011KT 8SM -RA FEW004 BKN012 OVC029 07/06
 A2988 RMK AO2 P0002=

SPECI PAII 240654Z AUTO 13011KT 10SM -RA BKN002 BKN014 OVC023 07/06
     A2988 RMK AO2 CIG 002V009 P0003=

SPECI PAII 240716Z AUTO 13010KT 7SM -RA SCT002 BKN012 OVC018 06/06 A2988
     RMK AO2 P0002=

SPECI PAII 240739Z AUTO 14012KT 6SM -RA BR BKN009 OVC013 06/06 A2987 RMK
     AO2 CIG 005V011 P0004=


NOAA's National Weather Service
Alaska Aviation Weather Unit
6930 Sand Lake Road
Anchorage, AK 99502-1845
Disclaimer
Credits
Glossary
Privacy Policy
About Us
Career Opportunities
Contact AAWU Internet Services Site last modified: April, 17th 2012